KRKR/RKR METAR and TAF weather

Enter ICAO airport designator
Station Type Date Time Source
KRKR METAR 2022/06/30 13:35 UTC NOAA

KRKR 301335Z AUTO 00000KT 10SM CLR 21/16 A3012 RMK AO2


Station Type Date Time Source
KRKR Decoded METAR 2022/06/30 13:35 UTC NOAA

Poteau, Robert S Kerr Airport, OK, United States (KRKR) 35-01-18N 094-37-17W
Jun 30, 2022 - 09:35 AM EDT / 2022.06.30 1335 UTC
Wind: Calm:0
Visibility: 10 mile(s):0
Sky conditions: clear
Temperature: 69 F (21 C)
Dew Point: 60 F (16 C)
Relative Humidity: 73%
Pressure (altimeter): 30.12 in. Hg (1019 hPa)
ob: KRKR 301335Z AUTO 00000KT 10SM CLR 21/16 A3012 RMK AO2
cycle: 13

Station Type Date Time Source
KRKR TAF UTC NOAA

Error!

Example: see airport list